Uvarovo, Russia
Current Conditions -  °F | °C
As of 1:30 AM on Sunday 26 Oct 2014 (Local Time) from UUOO Reporting Station
Clear Clear  
Wind Chill:   Ceiling: Unl
Heat Index: 12°   Visibility: 6mi
Dew Point:   Wind: 4mph
Humidity: 85%   Direction: NA
Pressure: 30.65"   Gusts: NA
Location:  51.99°N, 42.26°E
Report Text: UUOO 252230Z VRB02MPS CAVOK M11/M13 Q1038 NOSIG RMK 30090070
Loading
Personal Weather Stations






























Interactive Weather Map
Tropical Storm Tracking
New forecast layout! Learn more

10-Day Weather Forecast

Advertisements
Track Severe Weather on mobile